sensor_id;sensor_type;location;lat;lon;timestamp;temperature;humidity
1786;DHT22;890;48.158;11.540;2023-04-06T00:01:01;4.40;49.20
1786;DHT22;890;48.158;11.540;2023-04-06T00:03:27;4.40;49.30
1786;DHT22;890;48.158;11.540;2023-04-06T00:05:52;4.50;49.30
1786;DHT22;890;48.158;11.540;2023-04-06T00:08:18;4.40;49.40
1786;DHT22;890;48.158;11.540;2023-04-06T00:10:44;4.40;49.40
1786;DHT22;890;48.158;11.540;2023-04-06T00:13:09;4.30;49.40
1786;DHT22;890;48.158;11.540;2023-04-06T00:15:35;4.30;49.80
1786;DHT22;890;48.158;11.540;2023-04-06T00:18:02;4.30;49.80
1786;DHT22;890;48.158;11.540;2023-04-06T00:20:28;4.20;49.80
1786;DHT22;890;48.158;11.540;2023-04-06T00:22:54;4.20;50.00
1786;DHT22;890;48.158;11.540;2023-04-06T00:25:20;4.20;50.20
1786;DHT22;890;48.158;11.540;2023-04-06T00:27:45;4.20;50.20
1786;DHT22;890;48.158;11.540;2023-04-06T00:30:11;4.20;50.40
1786;DHT22;890;48.158;11.540;2023-04-06T00:32:37;4.10;50.40
1786;DHT22;890;48.158;11.540;2023-04-06T00:35:06;4.10;50.50
1786;DHT22;890;48.158;11.540;2023-04-06T00:37:32;4.00;50.60
1786;DHT22;890;48.158;11.540;2023-04-06T00:39:58;4.00;50.70
1786;DHT22;890;48.158;11.540;2023-04-06T00:42:24;4.00;50.80
1786;DHT22;890;48.158;11.540;2023-04-06T00:44:53;4.00;50.90
1786;DHT22;890;48.158;11.540;2023-04-06T00:47:19;4.20;51.10
1786;DHT22;890;48.158;11.540;2023-04-06T00:49:45;4.00;51.60
1786;DHT22;890;48.158;11.540;2023-04-06T00:52:11;4.00;51.10
1786;DHT22;890;48.158;11.540;2023-04-06T00:54:37;4.00;51.10
1786;DHT22;890;48.158;11.540;2023-04-06T00:57:02;4.00;51.10
1786;DHT22;890;48.158;11.540;2023-04-06T00:59:28;4.00;51.10
1786;DHT22;890;48.158;11.540;2023-04-06T01:01:54;4.40;51.60
1786;DHT22;890;48.158;11.540;2023-04-06T01:04:20;4.00;51.90
1786;DHT22;890;48.158;11.540;2023-04-06T01:06:48;4.00;51.40
1786;DHT22;890;48.158;11.540;2023-04-06T01:09:14;3.90;51.50
1786;DHT22;890;48.158;11.540;2023-04-06T01:11:40;3.90;52.20
1786;DHT22;890;48.158;11.540;2023-04-06T01:14:05;3.80;51.70
1786;DHT22;890;48.158;11.540;2023-04-06T01:16:31;3.80;51.80
1786;DHT22;890;48.158;11.540;2023-04-06T01:18:57;3.80;52.00
1786;DHT22;890;48.158;11.540;2023-04-06T01:21:22;3.80;52.20
1786;DHT22;890;48.158;11.540;2023-04-06T01:23:48;3.80;52.80
1786;DHT22;890;48.158;11.540;2023-04-06T01:26:14;3.90;52.40
1786;DHT22;890;48.158;11.540;2023-04-06T01:28:39;3.80;52.50
1786;DHT22;890;48.158;11.540;2023-04-06T01:31:07;3.80;52.50
1786;DHT22;890;48.158;11.540;2023-04-06T01:33:33;3.80;52.60
1786;DHT22;890;48.158;11.540;2023-04-06T01:35:58;3.80;52.60
1786;DHT22;890;48.158;11.540;2023-04-06T01:38:25;3.70;52.50
1786;DHT22;890;48.158;11.540;2023-04-06T01:40:52;3.70;52.70
1786;DHT22;890;48.158;11.540;2023-04-06T01:43:18;3.70;52.80
1786;DHT22;890;48.158;11.540;2023-04-06T01:45:44;3.70;52.90
1786;DHT22;890;48.158;11.540;2023-04-06T01:48:09;3.70;52.90
1786;DHT22;890;48.158;11.540;2023-04-06T01:50:35;3.70;52.90
1786;DHT22;890;48.158;11.540;2023-04-06T01:53:01;3.70;53.00
1786;DHT22;890;48.158;11.540;2023-04-06T01:55:27;3.70;52.90
1786;DHT22;890;48.158;11.540;2023-04-06T01:57:52;3.70;53.00
1786;DHT22;890;48.158;11.540;2023-04-06T02:00:18;3.60;52.80
1786;DHT22;890;48.158;11.540;2023-04-06T02:02:44;3.60;52.90
1786;DHT22;890;48.158;11.540;2023-04-06T02:05:09;3.50;52.90
1786;DHT22;890;48.158;11.540;2023-04-06T02:07:35;3.60;53.00
1786;DHT22;890;48.158;11.540;2023-04-06T02:10:00;3.50;53.00
1786;DHT22;890;48.158;11.540;2023-04-06T02:12:26;3.60;53.10
1786;DHT22;890;48.158;11.540;2023-04-06T02:14:51;3.60;53.10
1786;DHT22;890;48.158;11.540;2023-04-06T02:17:17;3.60;53.10
1786;DHT22;890;48.158;11.540;2023-04-06T02:19:43;3.60;53.10
1786;DHT22;890;48.158;11.540;2023-04-06T02:22:09;3.60;53.10
1786;DHT22;890;48.158;11.540;2023-04-06T02:24:35;4.20;53.50
1786;DHT22;890;48.158;11.540;2023-04-06T02:27:01;3.70;53.10
1786;DHT22;890;48.158;11.540;2023-04-06T02:29:26;3.70;53.10
1786;DHT22;890;48.158;11.540;2023-04-06T02:31:52;3.60;53.10
1786;DHT22;890;48.158;11.540;2023-04-06T02:34:17;3.70;53.20
1786;DHT22;890;48.158;11.540;2023-04-06T02:36:44;3.80;53.40
1786;DHT22;890;48.158;11.540;2023-04-06T02:39:10;3.60;53.30
1786;DHT22;890;48.158;11.540;2023-04-06T02:41:36;3.50;53.30
1786;DHT22;890;48.158;11.540;2023-04-06T02:44:02;3.60;53.40
1786;DHT22;890;48.158;11.540;2023-04-06T02:46:28;3.50;53.40
1786;DHT22;890;48.158;11.540;2023-04-06T02:48:54;3.60;53.60
1786;DHT22;890;48.158;11.540;2023-04-06T02:51:20;3.60;53.70
1786;DHT22;890;48.158;11.540;2023-04-06T02:53:46;3.60;53.70
1786;DHT22;890;48.158;11.540;2023-04-06T02:56:11;3.60;53.70
1786;DHT22;890;48.158;11.540;2023-04-06T02:58:37;3.50;53.60
1786;DHT22;890;48.158;11.540;2023-04-06T03:01:03;3.50;53.80
1786;DHT22;890;48.158;11.540;2023-04-06T03:03:29;3.50;53.80
1786;DHT22;890;48.158;11.540;2023-04-06T03:05:55;4.50;54.50
1786;DHT22;890;48.158;11.540;2023-04-06T03:08:24;3.50;53.80
1786;DHT22;890;48.158;11.540;2023-04-06T03:10:49;3.40;53.90
1786;DHT22;890;48.158;11.540;2023-04-06T03:13:15;3.40;53.80
1786;DHT22;890;48.158;11.540;2023-04-06T03:15:41;3.30;53.80
1786;DHT22;890;48.158;11.540;2023-04-06T03:18:06;3.60;54.10
1786;DHT22;890;48.158;11.540;2023-04-06T03:20:32;3.30;54.00
1786;DHT22;890;48.158;11.540;2023-04-06T03:22:58;3.20;53.90
1786;DHT22;890;48.158;11.540;2023-04-06T03:25:24;3.00;53.70
1786;DHT22;890;48.158;11.540;2023-04-06T03:27:49;3.00;53.80
1786;DHT22;890;48.158;11.540;2023-04-06T03:30:15;3.00;53.90
1786;DHT22;890;48.158;11.540;2023-04-06T03:32:43;2.90;53.80
1786;DHT22;890;48.158;11.540;2023-04-06T03:35:09;2.90;53.80
1786;DHT22;890;48.158;11.540;2023-04-06T03:37:35;2.90;53.90
1786;DHT22;890;48.158;11.540;2023-04-06T03:40:01;2.90;53.80
1786;DHT22;890;48.158;11.540;2023-04-06T03:42:26;2.80;53.70
1786;DHT22;890;48.158;11.540;2023-04-06T03:44:52;2.80;53.80
1786;DHT22;890;48.158;11.540;2023-04-06T03:47:18;2.70;53.80
1786;DHT22;890;48.158;11.540;2023-04-06T03:49:43;2.70;53.90
1786;DHT22;890;48.158;11.540;2023-04-06T03:52:09;2.70;53.90
1786;DHT22;890;48.158;11.540;2023-04-06T03:54:35;2.80;54.10
1786;DHT22;890;48.158;11.540;2023-04-06T03:57:00;2.80;54.10
1786;DHT22;890;48.158;11.540;2023-04-06T03:59:26;2.80;54.10
1786;DHT22;890;48.158;11.540;2023-04-06T04:01:52;2.80;54.10
1786;DHT22;890;48.158;11.540;2023-04-06T04:04:17;2.80;54.20
1786;DHT22;890;48.158;11.540;2023-04-06T04:06:43;2.90;54.30
1786;DHT22;890;48.158;11.540;2023-04-06T04:09:08;2.90;54.20
1786;DHT22;890;48.158;11.540;2023-04-06T04:11:34;3.00;54.30
1786;DHT22;890;48.158;11.540;2023-04-06T04:14:00;3.00;54.20
1786;DHT22;890;48.158;11.540;2023-04-06T04:16:25;3.00;54.20
1786;DHT22;890;48.158;11.540;2023-04-06T04:18:51;3.00;54.40
1786;DHT22;890;48.158;11.540;2023-04-06T04:21:17;2.90;54.20
1786;DHT22;890;48.158;11.540;2023-04-06T04:23:42;2.90;54.00
1786;DHT22;890;48.158;11.540;2023-04-06T04:26:08;2.90;54.00
1786;DHT22;890;48.158;11.540;2023-04-06T04:28:34;2.90;54.00
1786;DHT22;890;48.158;11.540;2023-04-06T04:30:59;2.80;54.00
1786;DHT22;890;48.158;11.540;2023-04-06T04:33:25;2.70;53.90
1786;DHT22;890;48.158;11.540;2023-04-06T04:35:51;2.70;54.60
1786;DHT22;890;48.158;11.540;2023-04-06T04:38:17;2.70;54.30
1786;DHT22;890;48.158;11.540;2023-04-06T04:40:42;2.60;54.30
1786;DHT22;890;48.158;11.540;2023-04-06T04:43:08;2.50;54.20
1786;DHT22;890;48.158;11.540;2023-04-06T04:45:34;2.50;54.30
1786;DHT22;890;48.158;11.540;2023-04-06T04:47:59;2.40;54.20
1786;DHT22;890;48.158;11.540;2023-04-06T04:50:25;2.40;54.30
1786;DHT22;890;48.158;11.540;2023-04-06T04:52:51;2.40;54.40
1786;DHT22;890;48.158;11.540;2023-04-06T04:55:16;2.40;54.50
1786;DHT22;890;48.158;11.540;2023-04-06T04:57:43;2.50;55.00
1786;DHT22;890;48.158;11.540;2023-04-06T05:00:09;2.50;54.60
1786;DHT22;890;48.158;11.540;2023-04-06T05:02:35;2.50;54.70
1786;DHT22;890;48.158;11.540;2023-04-06T05:05:00;2.60;54.80
1786;DHT22;890;48.158;11.540;2023-04-06T05:07:26;2.60;54.80
1786;DHT22;890;48.158;11.540;2023-04-06T05:09:52;2.70;54.90
1786;DHT22;890;48.158;11.540;2023-04-06T05:12:18;2.70;54.80
1786;DHT22;890;48.158;11.540;2023-04-06T05:14:44;2.90;55.00
1786;DHT22;890;48.158;11.540;2023-04-06T05:17:10;2.80;54.80
1786;DHT22;890;48.158;11.540;2023-04-06T05:19:36;2.90;55.00
1786;DHT22;890;48.158;11.540;2023-04-06T05:22:01;3.00;55.10
1786;DHT22;890;48.158;11.540;2023-04-06T05:24:27;3.10;55.30
1786;DHT22;890;48.158;11.540;2023-04-06T05:26:53;3.10;55.20
1786;DHT22;890;48.158;11.540;2023-04-06T05:29:19;3.30;55.60
1786;DHT22;890;48.158;11.540;2023-04-06T05:31:45;3.40;55.60
1786;DHT22;890;48.158;11.540;2023-04-06T05:34:11;3.50;55.60
1786;DHT22;890;48.158;11.540;2023-04-06T05:36:38;3.50;55.70
1786;DHT22;890;48.158;11.540;2023-04-06T05:39:03;3.60;55.80
1786;DHT22;890;48.158;11.540;2023-04-06T05:41:29;3.60;55.70
1786;DHT22;890;48.158;11.540;2023-04-06T05:43:55;3.70;55.80
1786;DHT22;890;48.158;11.540;2023-04-06T05:46:20;3.70;56.50
1786;DHT22;890;48.158;11.540;2023-04-06T05:48:46;3.80;55.90
1786;DHT22;890;48.158;11.540;2023-04-06T05:51:12;3.90;56.00
1786;DHT22;890;48.158;11.540;2023-04-06T05:53:38;5.30;57.00
1786;DHT22;890;48.158;11.540;2023-04-06T05:56:04;4.20;56.00
1786;DHT22;890;48.158;11.540;2023-04-06T05:58:29;4.20;56.10
1786;DHT22;890;48.158;11.540;2023-04-06T06:00:59;4.30;56.20
1786;DHT22;890;48.158;11.540;2023-04-06T06:03:24;4.40;56.20
1786;DHT22;890;48.158;11.540;2023-04-06T06:05:50;4.50;56.60
1786;DHT22;890;48.158;11.540;2023-04-06T06:08:16;4.70;56.10
1786;DHT22;890;48.158;11.540;2023-04-06T06:10:41;4.70;55.90
1786;DHT22;890;48.158;11.540;2023-04-06T06:13:07;4.80;55.70
1786;DHT22;890;48.158;11.540;2023-04-06T06:15:32;4.90;55.80
1786;DHT22;890;48.158;11.540;2023-04-06T06:17:58;4.90;55.80
1786;DHT22;890;48.158;11.540;2023-04-06T06:20:24;5.10;55.90
1786;DHT22;890;48.158;11.540;2023-04-06T06:22:50;5.30;55.80
1786;DHT22;890;48.158;11.540;2023-04-06T06:25:15;5.40;55.60
1786;DHT22;890;48.158;11.540;2023-04-06T06:27:41;5.40;55.40
1786;DHT22;890;48.158;11.540;2023-04-06T06:30:08;5.50;55.40
1786;DHT22;890;48.158;11.540;2023-04-06T06:32:33;5.60;55.30
1786;DHT22;890;48.158;11.540;2023-04-06T06:34:59;5.80;55.20
1786;DHT22;890;48.158;11.540;2023-04-06T06:37:25;5.90;54.90
1786;DHT22;890;48.158;11.540;2023-04-06T06:39:50;6.10;54.90
1786;DHT22;890;48.158;11.540;2023-04-06T06:42:16;6.20;54.80
1786;DHT22;890;48.158;11.540;2023-04-06T06:44:42;6.30;54.50
1786;DHT22;890;48.158;11.540;2023-04-06T06:47:07;6.40;54.50
1786;DHT22;890;48.158;11.540;2023-04-06T06:49:33;6.50;54.50
1786;DHT22;890;48.158;11.540;2023-04-06T06:51:58;6.70;54.70
1786;DHT22;890;48.158;11.540;2023-04-06T06:54:24;6.80;54.30
1786;DHT22;890;48.158;11.540;2023-04-06T06:56:50;6.90;53.90
1786;DHT22;890;48.158;11.540;2023-04-06T06:59:15;7.30;54.40
1786;DHT22;890;48.158;11.540;2023-04-06T07:01:41;7.10;53.40
1786;DHT22;890;48.158;11.540;2023-04-06T07:04:07;7.30;53.40
1786;DHT22;890;48.158;11.540;2023-04-06T07:06:35;7.50;53.10
1786;DHT22;890;48.158;11.540;2023-04-06T07:09:02;7.70;52.90
1786;DHT22;890;48.158;11.540;2023-04-06T07:11:29;7.80;52.60
1786;DHT22;890;48.158;11.540;2023-04-06T07:13:55;8.10;52.90
1786;DHT22;890;48.158;11.540;2023-04-06T07:16:20;8.30;52.80
1786;DHT22;890;48.158;11.540;2023-04-06T07:18:46;8.40;52.20
1786;DHT22;890;48.158;11.540;2023-04-06T07:21:12;8.50;51.90
1786;DHT22;890;48.158;11.540;2023-04-06T07:23:38;8.60;51.80
1786;DHT22;890;48.158;11.540;2023-04-06T07:26:04;8.80;51.50
1786;DHT22;890;48.158;11.540;2023-04-06T07:28:29;8.80;50.90
1786;DHT22;890;48.158;11.540;2023-04-06T07:30:55;8.90;50.90
1786;DHT22;890;48.158;11.540;2023-04-06T07:33:21;8.80;50.50
1786;DHT22;890;48.158;11.540;2023-04-06T07:35:46;8.90;50.50
1786;DHT22;890;48.158;11.540;2023-04-06T07:38:12;9.00;50.50
1786;DHT22;890;48.158;11.540;2023-04-06T07:40:38;8.90;50.10
1786;DHT22;890;48.158;11.540;2023-04-06T07:43:03;8.80;50.00
1786;DHT22;890;48.158;11.540;2023-04-06T07:45:29;8.90;50.00
1786;DHT22;890;48.158;11.540;2023-04-06T07:47:55;8.90;50.20
1786;DHT22;890;48.158;11.540;2023-04-06T07:50:21;8.80;49.40
1786;DHT22;890;48.158;11.540;2023-04-06T07:52:47;8.50;48.70
1786;DHT22;890;48.158;11.540;2023-04-06T07:55:14;8.40;48.80
1786;DHT22;890;48.158;11.540;2023-04-06T07:57:42;8.30;48.70
1786;DHT22;890;48.158;11.540;2023-04-06T08:00:08;8.30;48.70
1786;DHT22;890;48.158;11.540;2023-04-06T08:02:34;8.50;49.00
1786;DHT22;890;48.158;11.540;2023-04-06T08:05:00;8.80;49.40
1786;DHT22;890;48.158;11.540;2023-04-06T08:07:26;9.00;49.20
1786;DHT22;890;48.158;11.540;2023-04-06T08:09:52;9.20;49.20
1786;DHT22;890;48.158;11.540;2023-04-06T08:12:19;9.50;49.20
1786;DHT22;890;48.158;11.540;2023-04-06T08:14:45;9.60;48.90
1786;DHT22;890;48.158;11.540;2023-04-06T08:17:11;9.70;49.00
1786;DHT22;890;48.158;11.540;2023-04-06T08:19:36;9.80;48.50
1786;DHT22;890;48.158;11.540;2023-04-06T08:22:02;10.10;47.40
1786;DHT22;890;48.158;11.540;2023-04-06T08:24:28;9.90;47.70
1786;DHT22;890;48.158;11.540;2023-04-06T08:26:53;9.80;47.20
1786;DHT22;890;48.158;11.540;2023-04-06T08:29:19;9.90;47.20
1786;DHT22;890;48.158;11.540;2023-04-06T08:31:45;10.00;46.70
1786;DHT22;890;48.158;11.540;2023-04-06T08:34:10;10.00;46.00
1786;DHT22;890;48.158;11.540;2023-04-06T08:36:36;10.00;45.70
1786;DHT22;890;48.158;11.540;2023-04-06T08:39:02;10.00;45.90
1786;DHT22;890;48.158;11.540;2023-04-06T08:41:27;10.20;46.20
1786;DHT22;890;48.158;11.540;2023-04-06T08:43:58;10.20;45.90
1786;DHT22;890;48.158;11.540;2023-04-06T08:46:25;10.30;46.10
1786;DHT22;890;48.158;11.540;2023-04-06T08:48:59;10.20;45.40
1786;DHT22;890;48.158;11.540;2023-04-06T08:51:26;10.20;44.80
1786;DHT22;890;48.158;11.540;2023-04-06T08:53:56;10.20;44.30
1786;DHT22;890;48.158;11.540;2023-04-06T08:56:26;10.20;43.80
1786;DHT22;890;48.158;11.540;2023-04-06T08:58:52;10.20;43.70
1786;DHT22;890;48.158;11.540;2023-04-06T09:01:21;10.20;43.40
1786;DHT22;890;48.158;11.540;2023-04-06T09:03:49;10.30;43.20
1786;DHT22;890;48.158;11.540;2023-04-06T09:06:15;10.30;42.80
1786;DHT22;890;48.158;11.540;2023-04-06T09:08:41;10.30;42.50
1786;DHT22;890;48.158;11.540;2023-04-06T09:11:08;10.40;42.60
1786;DHT22;890;48.158;11.540;2023-04-06T09:13:48;10.50;42.80
1786;DHT22;890;48.158;11.540;2023-04-06T09:16:14;10.50;42.20
1786;DHT22;890;48.158;11.540;2023-04-06T09:18:39;10.70;42.50
1786;DHT22;890;48.158;11.540;2023-04-06T09:21:06;11.00;45.40
1786;DHT22;890;48.158;11.540;2023-04-06T09:23:33;11.70;54.80
1786;DHT22;890;48.158;11.540;2023-04-06T09:26:16;12.80;58.80
1786;DHT22;890;48.158;11.540;2023-04-06T09:28:54;14.20;58.70
1786;DHT22;890;48.158;11.540;2023-04-06T09:31:25;16.10;57.20
1786;DHT22;890;48.158;11.540;2023-04-06T09:33:52;17.40;54.60
1786;DHT22;890;48.158;11.540;2023-04-06T09:36:18;18.40;54.00
1786;DHT22;890;48.158;11.540;2023-04-06T09:38:55;19.00;52.80
1786;DHT22;890;48.158;11.540;2023-04-06T09:43:52;20.20;44.70
1786;DHT22;890;48.158;11.540;2023-04-06T09:46:26;19.70;42.20
1786;DHT22;890;48.158;11.540;2023-04-06T09:48:53;18.80;41.70
1786;DHT22;890;48.158;11.540;2023-04-06T09:51:19;18.30;43.40
1786;DHT22;890;48.158;11.540;2023-04-06T09:53:48;18.40;46.90
1786;DHT22;890;48.158;11.540;2023-04-06T09:56:17;19.30;46.70
1786;DHT22;890;48.158;11.540;2023-04-06T09:58:47;20.50;44.90
1786;DHT22;890;48.158;11.540;2023-04-06T10:01:18;20.90;43.70
1786;DHT22;890;48.158;11.540;2023-04-06T10:06:26;20.30;42.60
1786;DHT22;890;48.158;11.540;2023-04-06T10:08:53;21.00;42.20
1786;DHT22;890;48.158;11.540;2023-04-06T10:11:20;21.60;41.20
1786;DHT22;890;48.158;11.540;2023-04-06T10:13:48;22.00;41.30
1786;DHT22;890;48.158;11.540;2023-04-06T10:16:14;22.80;41.00
1786;DHT22;890;48.158;11.540;2023-04-06T10:18:45;23.60;40.40
1786;DHT22;890;48.158;11.540;2023-04-06T10:21:14;24.00;39.60
1786;DHT22;890;48.158;11.540;2023-04-06T10:24:00;24.40;40.40
1786;DHT22;890;48.158;11.540;2023-04-06T10:26:26;23.70;38.50
1786;DHT22;890;48.158;11.540;2023-04-06T10:28:52;23.00;39.90
1786;DHT22;890;48.158;11.540;2023-04-06T10:31:25;22.70;40.30
1786;DHT22;890;48.158;11.540;2023-04-06T10:34:09;22.90;39.00
1786;DHT22;890;48.158;11.540;2023-04-06T10:36:35;23.40;38.70
1786;DHT22;890;48.158;11.540;2023-04-06T10:39:05;23.00;39.80
1786;DHT22;890;48.158;11.540;2023-04-06T10:41:37;23.40;39.30
1786;DHT22;890;48.158;11.540;2023-04-06T10:44:06;23.70;38.20
1786;DHT22;890;48.158;11.540;2023-04-06T10:46:33;23.30;38.90
1786;DHT22;890;48.158;11.540;2023-04-06T10:49:10;23.60;37.90
1786;DHT22;890;48.158;11.540;2023-04-06T10:51:38;24.10;35.80
1786;DHT22;890;48.158;11.540;2023-04-06T10:54:05;24.60;34.60
1786;DHT22;890;48.158;11.540;2023-04-06T10:56:32;23.60;32.40
1786;DHT22;890;48.158;11.540;2023-04-06T10:59:02;23.20;34.50
1786;DHT22;890;48.158;11.540;2023-04-06T11:01:28;22.50;35.00
1786;DHT22;890;48.158;11.540;2023-04-06T11:03:56;22.70;35.70
1786;DHT22;890;48.158;11.540;2023-04-06T11:06:28;22.60;35.20
1786;DHT22;890;48.158;11.540;2023-04-06T11:08:56;22.10;30.60
1786;DHT22;890;48.158;11.540;2023-04-06T11:11:23;21.40;29.70
1786;DHT22;890;48.158;11.540;2023-04-06T11:13:58;20.50;28.20
1786;DHT22;890;48.158;11.540;2023-04-06T11:16:30;19.10;27.50
1786;DHT22;890;48.158;11.540;2023-04-06T11:18:58;18.60;28.90
1786;DHT22;890;48.158;11.540;2023-04-06T11:21:41;19.30;31.90
1786;DHT22;890;48.158;11.540;2023-04-06T11:24:15;20.50;31.70
1786;DHT22;890;48.158;11.540;2023-04-06T11:26:42;21.40;32.00
1786;DHT22;890;48.158;11.540;2023-04-06T11:29:10;22.20;31.80
1786;DHT22;890;48.158;11.540;2023-04-06T11:31:49;21.80;30.50
1786;DHT22;890;48.158;11.540;2023-04-06T11:34:22;21.50;32.40
1786;DHT22;890;48.158;11.540;2023-04-06T11:36:53;21.50;32.00
1786;DHT22;890;48.158;11.540;2023-04-06T11:39:21;21.50;32.80
1786;DHT22;890;48.158;11.540;2023-04-06T11:41:51;21.90;33.50
1786;DHT22;890;48.158;11.540;2023-04-06T11:44:36;22.10;32.70
1786;DHT22;890;48.158;11.540;2023-04-06T11:47:03;21.30;30.10
1786;DHT22;890;48.158;11.540;2023-04-06T11:49:29;20.40;29.50
1786;DHT22;890;48.158;11.540;2023-04-06T11:51:59;19.60;28.60
1786;DHT22;890;48.158;11.540;2023-04-06T11:54:36;19.40;28.80
1786;DHT22;890;48.158;11.540;2023-04-06T11:57:07;19.20;29.50
1786;DHT22;890;48.158;11.540;2023-04-06T11:59:33;19.80;29.80
1786;DHT22;890;48.158;11.540;2023-04-06T12:02:01;20.70;29.90
1786;DHT22;890;48.158;11.540;2023-04-06T12:04:26;21.70;29.30
1786;DHT22;890;48.158;11.540;2023-04-06T12:06:52;22.40;29.70
1786;DHT22;890;48.158;11.540;2023-04-06T12:09:18;22.40;30.30
1786;DHT22;890;48.158;11.540;2023-04-06T12:11:44;22.40;30.10
1786;DHT22;890;48.158;11.540;2023-04-06T12:14:11;21.70;29.90
1786;DHT22;890;48.158;11.540;2023-04-06T12:16:36;21.50;28.40
1786;DHT22;890;48.158;11.540;2023-04-06T12:19:03;21.10;27.10
1786;DHT22;890;48.158;11.540;2023-04-06T12:21:29;20.30;26.60
1786;DHT22;890;48.158;11.540;2023-04-06T12:23:56;19.30;26.20
1786;DHT22;890;48.158;11.540;2023-04-06T12:26:22;18.50;26.00
1786;DHT22;890;48.158;11.540;2023-04-06T12:28:48;17.40;26.10
1786;DHT22;890;48.158;11.540;2023-04-06T12:31:17;17.00;26.10
1786;DHT22;890;48.158;11.540;2023-04-06T12:33:45;16.20;26.20
1786;DHT22;890;48.158;11.540;2023-04-06T12:36:12;15.60;26.70
1786;DHT22;890;48.158;11.540;2023-04-06T12:38:39;15.00;26.70
1786;DHT22;890;48.158;11.540;2023-04-06T12:41:06;14.60;26.90
1786;DHT22;890;48.158;11.540;2023-04-06T12:43:32;14.60;27.30
1786;DHT22;890;48.158;11.540;2023-04-06T12:45:57;14.20;27.30
1786;DHT22;890;48.158;11.540;2023-04-06T12:48:25;14.00;27.30
1786;DHT22;890;48.158;11.540;2023-04-06T12:51:02;13.90;27.60
1786;DHT22;890;48.158;11.540;2023-04-06T12:53:27;13.90;27.70
1786;DHT22;890;48.158;11.540;2023-04-06T12:55:54;13.80;27.50
1786;DHT22;890;48.158;11.540;2023-04-06T12:58:20;13.80;27.70
1786;DHT22;890;48.158;11.540;2023-04-06T13:00:48;13.80;27.80
1786;DHT22;890;48.158;11.540;2023-04-06T13:03:13;13.60;27.60
1786;DHT22;890;48.158;11.540;2023-04-06T13:05:46;13.40;27.90
1786;DHT22;890;48.158;11.540;2023-04-06T13:08:12;13.30;28.10
1786;DHT22;890;48.158;11.540;2023-04-06T13:10:43;13.40;28.00
1786;DHT22;890;48.158;11.540;2023-04-06T13:13:08;13.60;28.10
1786;DHT22;890;48.158;11.540;2023-04-06T13:15:34;13.70;28.10
1786;DHT22;890;48.158;11.540;2023-04-06T13:18:02;13.60;28.10
1786;DHT22;890;48.158;11.540;2023-04-06T13:20:27;13.50;28.10
1786;DHT22;890;48.158;11.540;2023-04-06T13:22:53;13.40;28.10
1786;DHT22;890;48.158;11.540;2023-04-06T13:25:19;13.30;28.30
1786;DHT22;890;48.158;11.540;2023-04-06T13:27:45;13.30;29.20
1786;DHT22;890;48.158;11.540;2023-04-06T13:30:13;13.30;28.90
1786;DHT22;890;48.158;11.540;2023-04-06T13:32:39;13.40;29.30
1786;DHT22;890;48.158;11.540;2023-04-06T13:35:05;13.30;29.50
1786;DHT22;890;48.158;11.540;2023-04-06T13:37:32;13.20;29.20
1786;DHT22;890;48.158;11.540;2023-04-06T13:39:57;13.40;29.70
1786;DHT22;890;48.158;11.540;2023-04-06T13:42:23;13.30;29.10
1786;DHT22;890;48.158;11.540;2023-04-06T13:44:49;13.20;29.10
1786;DHT22;890;48.158;11.540;2023-04-06T13:47:16;13.20;29.70
1786;DHT22;890;48.158;11.540;2023-04-06T13:49:42;13.10;29.20
1786;DHT22;890;48.158;11.540;2023-04-06T13:52:07;13.20;29.40
1786;DHT22;890;48.158;11.540;2023-04-06T13:54:35;13.20;29.50
1786;DHT22;890;48.158;11.540;2023-04-06T13:57:00;13.20;29.70
1786;DHT22;890;48.158;11.540;2023-04-06T13:59:32;13.10;29.70
1786;DHT22;890;48.158;11.540;2023-04-06T14:01:58;13.10;29.90
1786;DHT22;890;48.158;11.540;2023-04-06T14:04:24;13.20;29.90
1786;DHT22;890;48.158;11.540;2023-04-06T14:06:49;13.10;30.00
1786;DHT22;890;48.158;11.540;2023-04-06T14:09:16;13.00;30.00
1786;DHT22;890;48.158;11.540;2023-04-06T14:11:41;12.90;29.90
1786;DHT22;890;48.158;11.540;2023-04-06T14:14:07;13.00;29.90
1786;DHT22;890;48.158;11.540;2023-04-06T14:16:33;13.00;30.00
1786;DHT22;890;48.158;11.540;2023-04-06T14:18:58;13.00;30.00
1786;DHT22;890;48.158;11.540;2023-04-06T14:21:24;13.10;30.00
1786;DHT22;890;48.158;11.540;2023-04-06T14:23:50;13.20;29.90
1786;DHT22;890;48.158;11.540;2023-04-06T14:26:16;13.10;29.90
1786;DHT22;890;48.158;11.540;2023-04-06T14:28:42;13.00;29.90
1786;DHT22;890;48.158;11.540;2023-04-06T14:31:14;12.80;29.90
1786;DHT22;890;48.158;11.540;2023-04-06T14:33:41;12.80;30.20
1786;DHT22;890;48.158;11.540;2023-04-06T14:36:07;12.90;30.10
1786;DHT22;890;48.158;11.540;2023-04-06T14:38:33;13.00;30.20
1786;DHT22;890;48.158;11.540;2023-04-06T14:40:59;13.10;30.30
1786;DHT22;890;48.158;11.540;2023-04-06T14:43:25;13.20;30.40
1786;DHT22;890;48.158;11.540;2023-04-06T14:45:51;13.20;30.20
1786;DHT22;890;48.158;11.540;2023-04-06T14:48:17;13.40;30.10
1786;DHT22;890;48.158;11.540;2023-04-06T14:50:53;13.40;30.20
1786;DHT22;890;48.158;11.540;2023-04-06T14:53:20;13.30;30.30
1786;DHT22;890;48.158;11.540;2023-04-06T14:55:46;13.20;30.50
1786;DHT22;890;48.158;11.540;2023-04-06T14:58:11;13.40;30.70
1786;DHT22;890;48.158;11.540;2023-04-06T15:00:38;13.50;30.40
1786;DHT22;890;48.158;11.540;2023-04-06T15:03:04;13.50;30.20
1786;DHT22;890;48.158;11.540;2023-04-06T15:05:29;13.30;30.30
1786;DHT22;890;48.158;11.540;2023-04-06T15:07:56;13.40;30.50
1786;DHT22;890;48.158;11.540;2023-04-06T15:10:22;13.50;30.40
1786;DHT22;890;48.158;11.540;2023-04-06T15:12:47;13.40;30.30
1786;DHT22;890;48.158;11.540;2023-04-06T15:15:13;13.20;30.40
1786;DHT22;890;48.158;11.540;2023-04-06T15:17:38;13.40;30.60
1786;DHT22;890;48.158;11.540;2023-04-06T15:20:05;13.40;30.60
1786;DHT22;890;48.158;11.540;2023-04-06T15:22:31;13.50;30.60
1786;DHT22;890;48.158;11.540;2023-04-06T15:24:56;13.60;30.40
1786;DHT22;890;48.158;11.540;2023-04-06T15:27:22;13.50;30.30
1786;DHT22;890;48.158;11.540;2023-04-06T15:29:47;13.50;30.10
1786;DHT22;890;48.158;11.540;2023-04-06T15:32:13;13.40;30.00
1786;DHT22;890;48.158;11.540;2023-04-06T15:34:39;13.30;29.90
1786;DHT22;890;48.158;11.540;2023-04-06T15:37:04;13.30;29.90
1786;DHT22;890;48.158;11.540;2023-04-06T15:39:31;13.20;29.80
1786;DHT22;890;48.158;11.540;2023-04-06T15:41:57;13.20;29.80
1786;DHT22;890;48.158;11.540;2023-04-06T15:44:23;13.30;30.00
1786;DHT22;890;48.158;11.540;2023-04-06T15:46:50;13.40;30.00
1786;DHT22;890;48.158;11.540;2023-04-06T15:49:18;13.30;30.00
1786;DHT22;890;48.158;11.540;2023-04-06T15:51:43;13.20;29.90
1786;DHT22;890;48.158;11.540;2023-04-06T15:54:09;13.10;29.80
1786;DHT22;890;48.158;11.540;2023-04-06T15:56:35;13.10;29.80
1786;DHT22;890;48.158;11.540;2023-04-06T15:59:00;13.00;29.90
1786;DHT22;890;48.158;11.540;2023-04-06T16:01:26;12.80;29.90
1786;DHT22;890;48.158;11.540;2023-04-06T16:03:52;12.70;30.00
1786;DHT22;890;48.158;11.540;2023-04-06T16:06:17;12.70;30.10
1786;DHT22;890;48.158;11.540;2023-04-06T16:08:43;12.70;30.10
1786;DHT22;890;48.158;11.540;2023-04-06T16:11:09;12.70;30.10